Time;durP1;ratioP1;P1;durP2;ratioP2;P2;SDS_P1;SDS_P2;PMS_P1;PMS_P2;Temp;Humidity;BMP_temperature;BMP_pressure;BME280_temperature;BME280_humidity;BME280_pressure;Samples;Min_cycle;Max_cycle;Signal;HPM_P1;HPM_P2
2022/08/18 00:02:16;;;;;;;2.85;1.83;;;27.60;57.10;;;;;;10408258;28;20128;-34
2022/08/18 00:07:20;;;;;;;4.45;2.10;;;27.50;57.20;;;;;;10403969;28;20060;-33
2022/08/18 00:12:24;;;;;;;2.35;1.92;;;27.50;57.10;;;;;;10397588;28;20434;-33
2022/08/18 00:17:28;;;;;;;2.72;2.13;;;27.50;57.40;;;;;;10400959;28;20055;-34
2022/08/18 00:22:30;;;;;;;3.90;2.05;;;27.50;57.40;;;;;;10400742;28;20077;-34
2022/08/18 00:27:32;;;;;;;2.38;2.05;;;27.50;57.40;;;;;;10407525;28;20613;-33
2022/08/18 00:32:38;;;;;;;4.07;2.42;;;27.50;57.50;;;;;;10402759;28;20108;-34
2022/08/18 00:37:41;;;;;;;5.60;2.85;;;27.50;57.50;;;;;;10421297;28;20461;-30
2022/08/18 00:42:47;;;;;;;2.88;1.95;;;27.40;57.50;;;;;;10402025;28;20558;-31
2022/08/18 00:47:50;;;;;;;3.45;2.22;;;27.50;57.60;;;;;;10401646;28;20092;-33
2022/08/18 00:52:56;;;;;;;2.65;1.98;;;27.50;57.70;;;;;;10399038;28;20065;-34
2022/08/18 00:58:02;;;;;;;2.38;1.90;;;27.40;57.60;;;;;;10402473;28;20128;-34
2022/08/18 01:03:12;;;;;;;2.78;1.73;;;27.40;57.70;;;;;;10388075;28;20603;-34
2022/08/18 01:08:16;;;;;;;2.13;1.70;;;27.40;57.80;;;;;;10400779;28;20083;-34
2022/08/18 01:13:19;;;;;;;3.15;1.77;;;27.40;57.80;;;;;;10411830;28;20136;-33
2022/08/18 01:23:44;;;;;;;2.00;1.85;;;27.30;57.80;;;;;;10400710;28;20041;-33
2022/08/18 01:28:48;;;;;;;3.17;1.95;;;27.30;57.80;;;;;;10398830;28;20198;-33
2022/08/18 01:33:50;;;;;;;1.98;1.77;;;27.30;57.80;;;;;;10379839;28;20053;-33
2022/08/18 01:38:53;;;;;;;2.13;1.90;;;27.30;57.80;;;;;;10396254;28;20133;-34
2022/08/18 01:43:55;;;;;;;5.18;1.63;;;27.30;57.80;;;;;;10389222;28;20590;-35
2022/08/18 01:48:59;;;;;;;1.95;1.50;;;27.20;57.70;;;;;;10387605;28;20053;-32
2022/08/18 01:54:04;;;;;;;2.20;1.88;;;27.20;58.30;;;;;;10403904;28;20230;-34
2022/08/18 01:59:09;;;;;;;3.40;2.00;;;27.20;57.90;;;;;;10399437;28;20048;-33
2022/08/18 02:04:12;;;;;;;1.70;1.60;;;27.20;57.90;;;;;;10391153;28;20042;-35
2022/08/18 02:09:16;;;;;;;2.28;2.05;;;27.20;57.90;;;;;;10398674;28;20077;-33
2022/08/18 02:14:18;;;;;;;1.65;1.52;;;27.20;57.90;;;;;;10400858;28;20054;-34
2022/08/18 02:19:19;;;;;;;2.10;1.77;;;27.20;57.90;;;;;;10409232;28;20136;-34
2022/08/18 02:24:22;;;;;;;3.10;1.90;;;27.20;57.80;;;;;;10411588;28;20076;-34
2022/08/18 02:29:24;;;;;;;2.28;1.60;;;27.20;58.00;;;;;;10405857;28;20479;-34
2022/08/18 02:34:27;;;;;;;2.03;1.80;;;27.10;58.00;;;;;;10412228;28;20502;-34
2022/08/18 02:39:30;;;;;;;3.42;1.77;;;27.10;58.60;;;;;;10402536;28;20620;-35
2022/08/18 02:44:33;;;;;;;2.30;1.67;;;27.10;58.00;;;;;;10415916;28;20053;-34
2022/08/18 02:49:36;;;;;;;2.15;1.48;;;27.10;58.00;;;;;;10404450;28;20054;-35
2022/08/18 02:54:39;;;;;;;2.40;1.70;;;27.10;58.10;;;;;;10409391;28;20406;-34
2022/08/18 02:59:41;;;;;;;1.80;1.70;;;27.10;58.20;;;;;;10404813;28;20042;-33
2022/08/18 03:04:43;;;;;;;2.35;1.65;;;27.00;58.70;;;;;;10416848;28;20073;-33
2022/08/18 03:09:46;;;;;;;3.10;2.03;;;27.10;58.10;;;;;;10427703;28;20156;-34
2022/08/18 03:14:49;;;;;;;2.63;1.65;;;27.10;58.10;;;;;;10410176;28;20076;-33
2022/08/18 03:19:50;;;;;;;2.05;1.73;;;27.00;58.10;;;;;;10408003;28;20057;-33
2022/08/18 03:24:54;;;;;;;2.38;1.83;;;27.00;58.20;;;;;;10411381;28;20132;-33
2022/08/18 03:29:56;;;;;;;2.53;1.40;;;27.00;58.10;;;;;;10406344;28;20527;-33
2022/08/18 03:34:58;;;;;;;2.83;1.80;;;27.00;58.20;;;;;;10410005;28;20065;-34
2022/08/18 03:40:02;;;;;;;1.77;1.67;;;27.00;58.30;;;;;;10407565;28;20081;-34
2022/08/18 03:45:05;;;;;;;2.63;1.80;;;27.00;58.20;;;;;;10409225;28;20045;-34
2022/08/18 03:50:08;;;;;;;1.83;1.73;;;27.00;58.30;;;;;;10398370;28;20049;-35
2022/08/18 03:55:11;;;;;;;2.80;1.85;;;27.00;58.30;;;;;;10404965;28;20076;-34
2022/08/18 04:00:13;;;;;;;2.15;1.85;;;27.00;58.40;;;;;;10412122;28;20052;-34
2022/08/18 04:05:15;;;;;;;2.08;1.85;;;27.10;58.60;;;;;;10409887;28;20454;-38
2022/08/18 04:10:18;;;;;;;5.18;1.90;;;27.00;58.60;;;;;;10407254;28;20069;-34
2022/08/18 04:15:20;;;;;;;2.70;1.80;;;27.00;58.80;;;;;;10403377;28;20083;-34
2022/08/18 04:20:23;;;;;;;4.75;2.63;;;27.00;58.70;;;;;;10406359;28;20178;-34
2022/08/18 04:25:26;;;;;;;4.57;2.42;;;27.00;58.80;;;;;;10402615;28;20041;-34
2022/08/18 04:30:28;;;;;;;2.60;2.20;;;27.00;59.00;;;;;;10405332;28;20054;-35
2022/08/18 04:35:30;;;;;;;3.67;2.75;;;27.00;59.00;;;;;;10402439;28;20512;-36
2022/08/18 04:40:34;;;;;;;4.60;2.30;;;27.00;59.00;;;;;;10395530;28;20049;-33
2022/08/18 04:45:38;;;;;;;3.28;2.28;;;27.00;59.00;;;;;;10399047;28;20076;-34
2022/08/18 04:50:40;;;;;;;5.18;2.50;;;27.00;59.10;;;;;;10403206;28;20052;-34
2022/08/18 04:55:48;;;;;;;5.75;2.42;;;27.00;59.20;;;;;;10405021;28;20140;-33
2022/08/18 05:00:57;;;;;;;2.63;2.05;;;27.00;59.20;;;;;;10404303;28;20041;-35
2022/08/18 05:05:59;;;;;;;5.60;2.60;;;27.00;59.30;;;;;;10409007;28;20077;-34
2022/08/18 05:11:02;;;;;;;3.33;2.17;;;27.00;59.30;;;;;;10394530;28;20052;-33
2022/08/18 05:16:05;;;;;;;3.80;2.10;;;27.00;59.20;;;;;;10403217;28;20103;-34
2022/08/18 05:21:13;;;;;;;6.22;2.53;;;27.00;59.20;;;;;;10400384;28;20048;-32
2022/08/18 05:26:18;;;;;;;11.50;2.60;;;26.90;59.10;;;;;;10392054;28;20671;-34
2022/08/18 05:31:24;;;;;;;3.83;2.08;;;27.00;59.20;;;;;;10404066;28;20057;-34
2022/08/18 05:36:42;;;;;;;3.75;2.00;;;27.00;59.00;;;;;;10402032;28;20053;-34
2022/08/18 05:41:50;;;;;;;3.13;2.42;;;27.00;58.90;;;;;;10390397;28;20152;-35
2022/08/18 05:46:54;;;;;;;3.50;2.08;;;27.10;58.90;;;;;;10397387;28;20049;-33
2022/08/18 05:51:59;;;;;;;6.60;2.00;;;27.10;58.90;;;;;;10395620;28;20073;-35
2022/08/18 05:57:15;;;;;;;9.40;3.13;;;27.00;58.90;;;;;;10399491;28;20700;-33
2022/08/18 06:02:30;;;;;;;2.28;1.73;;;27.00;58.90;;;;;;10394991;28;20046;-33
2022/08/18 06:07:35;;;;;;;5.38;1.92;;;27.10;58.90;;;;;;10397031;28;20101;-35
2022/08/18 06:12:41;;;;;;;6.05;2.08;;;27.00;59.00;;;;;;10396250;28;20049;-35
2022/08/18 06:18:26;;;;;;;2.70;2.03;;;27.10;58.90;;;;;;10391980;28;20066;-35
2022/08/18 06:23:35;;;;;;;3.38;2.50;;;27.10;59.00;;;;;;10388766;28;20049;-35
2022/08/18 06:28:50;;;;;;;4.85;2.50;;;26.80;61.30;;;;;;10388098;28;20491;-34
2022/08/18 06:34:00;;;;;;;6.35;2.97;;;27.00;59.70;;;;;;10386049;28;20054;-34
2022/08/18 06:39:06;;;;;;;3.97;2.08;;;27.10;59.50;;;;;;10392010;28;20490;-34
2022/08/18 06:44:12;;;;;;;1.92;1.73;;;27.10;59.50;;;;;;10391452;28;20049;-34
2022/08/18 06:49:23;;;;;;;5.68;2.80;;;27.10;59.70;;;;;;10400673;28;20054;-35
2022/08/18 06:54:28;;;;;;;1.88;1.60;;;27.10;59.70;;;;;;10390081;28;20108;-34
2022/08/18 06:59:35;;;;;;;4.30;2.03;;;27.00;59.60;;;;;;10390372;28;20046;-35
2022/08/18 07:04:40;;;;;;;6.38;3.08;;;26.90;59.90;;;;;;10396739;28;20052;-34
2022/08/18 07:09:42;;;;;;;13.63;5.80;;;27.00;59.60;;;;;;10398362;28;20128;-33
2022/08/18 07:14:49;;;;;;;16.13;6.50;;;27.10;59.70;;;;;;10408737;28;20069;-34
2022/08/18 07:20:01;;;;;;;13.52;5.80;;;27.10;59.40;;;;;;10404271;28;20049;-35
2022/08/18 07:25:05;;;;;;;18.73;6.35;;;26.90;60.00;;;;;;10401370;28;20119;-34
2022/08/18 07:30:11;;;;;;;14.23;6.40;;;27.10;59.50;;;;;;10400425;28;20421;-34
2022/08/18 07:35:17;;;;;;;13.38;6.15;;;27.10;59.40;;;;;;10401821;28;20132;-34
2022/08/18 07:40:27;;;;;;;10.75;5.32;;;27.20;59.40;;;;;;10396790;28;20060;-34
2022/08/18 07:45:35;;;;;;;11.50;4.85;;;27.20;59.30;;;;;;10392306;28;20085;-35
2022/08/18 07:50:44;;;;;;;8.75;3.63;;;27.30;59.30;;;;;;10391749;28;20073;-34
2022/08/18 07:55:53;;;;;;;6.40;3.05;;;27.20;59.30;;;;;;10394488;28;20056;-35
2022/08/18 08:01:03;;;;;;;3.50;2.25;;;27.30;59.30;;;;;;10383888;28;20049;-33
2022/08/18 08:06:10;;;;;;;3.05;1.83;;;27.40;59.30;;;;;;10397965;28;20045;-41
2022/08/18 08:11:20;;;;;;;3.13;1.60;;;27.10;61.10;;;;;;10392638;28;20122;-35
2022/08/18 08:16:35;;;;;;;1.30;1.20;;;26.70;61.90;;;;;;10403685;28;20526;-34
2022/08/18 08:21:44;;;;;;;1.70;1.33;;;27.30;59.80;;;;;;10393573;28;20073;-35
2022/08/18 08:26:57;;;;;;;1.02;0.90;;;27.40;59.10;;;;;;10395997;28;20049;-35
2022/08/18 08:32:03;;;;;;;2.40;1.02;;;27.50;59.00;;;;;;10402128;28;20080;-36
2022/08/18 08:37:08;;;;;;;2.08;1.25;;;27.50;59.00;;;;;;10404842;28;20139;-34
2022/08/18 08:42:16;;;;;;;1.52;1.15;;;27.50;58.90;;;;;;10389482;28;20075;-35
2022/08/18 08:47:26;;;;;;;4.28;1.38;;;27.40;59.00;;;;;;10402986;28;20128;-35
2022/08/18 08:52:34;;;;;;;3.03;1.15;;;27.50;59.10;;;;;;10393759;28;20049;-36
2022/08/18 08:57:41;;;;;;;1.42;1.13;;;27.60;58.70;;;;;;10375328;28;20597;-32
2022/08/18 09:03:23;;;;;;;8.57;1.15;;;27.60;58.60;;;;;;10405097;28;20041;-34
2022/08/18 09:08:43;;;;;;;2.03;1.10;;;27.50;58.70;;;;;;10382674;28;20487;-35
2022/08/18 09:14:23;;;;;;;4.47;1.80;;;27.50;58.80;;;;;;10393476;28;20128;-35
2022/08/18 09:19:48;;;;;;;1.50;1.10;;;27.60;58.60;;;;;;10383347;28;20779;-33
2022/08/18 09:24:53;;;;;;;5.72;2.10;;;27.60;58.60;;;;;;10400216;28;20053;-34
2022/08/18 09:29:58;;;;;;;4.85;1.65;;;27.40;59.00;;;;;;10400801;28;20084;-34
2022/08/18 09:35:18;;;;;;;3.83;1.70;;;27.30;59.60;;;;;;10404147;28;20049;-35
2022/08/18 09:45:54;;;;;;;6.05;3.05;;;27.70;58.40;;;;;;10379971;28;20042;-34
2022/08/18 09:51:19;;;;;;;6.32;3.42;;;27.90;58.20;;;;;;10377323;28;20053;-34
2022/08/18 09:56:59;;;;;;;2.53;1.50;;;27.80;58.30;;;;;;10375391;28;20504;-32
2022/08/18 10:02:05;;;;;;;4.93;2.92;;;27.40;58.80;;;;;;10392654;28;20081;-34
2022/08/18 10:07:20;;;;;;;5.93;2.55;;;27.80;58.40;;;;;;10405150;28;20048;-35
2022/08/18 10:12:32;;;;;;;5.90;2.83;;;28.00;57.70;;;;;;10399900;28;20658;-34
2022/08/18 10:17:59;;;;;;;2.75;1.00;;;28.10;57.60;;;;;;10374973;28;20069;-35
2022/08/18 10:23:03;;;;;;;2.65;1.15;;;27.90;58.10;;;;;;10382826;28;20538;-34
2022/08/18 10:28:08;;;;;;;2.67;1.33;;;28.00;57.90;;;;;;10386563;28;20044;-34
2022/08/18 10:33:12;;;;;;;3.97;1.13;;;28.00;58.00;;;;;;10389285;28;20057;-35
2022/08/18 10:38:22;;;;;;;5.57;1.40;;;28.10;57.80;;;;;;10407727;28;20727;-34
2022/08/18 10:43:32;;;;;;;2.88;1.00;;;28.10;57.70;;;;;;10403055;28;20071;-34
2022/08/18 10:48:34;;;;;;;2.70;1.35;;;28.10;57.80;;;;;;10404248;28;20071;-35
2022/08/18 10:53:44;;;;;;;7.15;1.30;;;28.20;57.60;;;;;;10412841;28;20053;-34
2022/08/18 10:59:03;;;;;;;2.00;0.90;;;27.90;57.50;;;;;;10393951;28;20053;-35
2022/08/18 11:04:07;;;;;;;2.22;1.30;;;28.10;57.90;;;;;;10381744;28;20087;-35
2022/08/18 11:09:11;;;;;;;3.95;1.63;;;28.10;57.50;;;;;;10401144;28;20041;-35
2022/08/18 11:14:33;;;;;;;5.20;1.67;;;28.20;56.90;;;;;;10402992;28;20641;-33
2022/08/18 11:19:38;;;;;;;2.35;1.70;;;27.60;57.80;;;;;;10408318;28;20057;-33
2022/08/18 11:24:45;;;;;;;3.05;1.45;;;27.90;57.10;;;;;;10408631;28;20466;-34
2022/08/18 11:29:47;;;;;;;10.90;1.40;;;28.10;56.60;;;;;;10407356;28;20545;-34
2022/08/18 11:34:52;;;;;;;3.45;1.20;;;27.10;56.80;;;;;;10408322;28;20061;-35
2022/08/18 11:39:59;;;;;;;3.83;1.70;;;27.60;55.90;;;;;;10403028;28;20054;-35
2022/08/18 11:45:16;;;;;;;4.32;1.35;;;28.00;57.50;;;;;;10399727;28;20085;-34
2022/08/18 11:50:27;;;;;;;8.07;1.60;;;27.40;57.10;;;;;;10415644;28;20560;-34
2022/08/18 11:55:33;;;;;;;3.28;1.50;;;26.80;59.40;;;;;;10402768;28;20455;-35
2022/08/18 12:00:42;;;;;;;5.65;1.83;;;27.70;57.30;;;;;;10398005;28;20049;-35
2022/08/18 12:05:48;;;;;;;3.15;1.17;;;26.10;59.90;;;;;;10403060;28;20085;-34
2022/08/18 12:11:04;;;;;;;2.17;1.13;;;28.30;56.10;;;;;;10399435;28;20426;-33
2022/08/18 12:16:14;;;;;;;2.75;1.15;;;28.60;55.30;;;;;;10395526;28;20069;-34
2022/08/18 12:21:16;;;;;;;2.27;0.93;;;28.10;56.40;;;;;;10391445;28;20148;-33
2022/08/18 12:26:19;;;;;;;1.92;1.00;;;28.00;55.40;;;;;;10381276;28;20076;-34
2022/08/18 12:31:21;;;;;;;1.65;0.90;;;28.20;55.90;;;;;;10401773;28;20802;-34
2022/08/18 12:36:23;;;;;;;5.07;1.20;;;28.40;55.90;;;;;;10402442;28;20547;-34
2022/08/18 12:41:26;;;;;;;4.30;1.10;;;28.60;55.10;;;;;;10403703;28;20053;-35
2022/08/18 12:46:30;;;;;;;2.55;1.13;;;28.20;55.60;;;;;;10395250;28;20103;-34
2022/08/18 12:51:32;;;;;;;3.65;1.27;;;28.80;54.90;;;;;;10399087;28;20077;-34
2022/08/18 12:56:35;;;;;;;3.47;1.10;;;28.30;55.10;;;;;;10400574;28;20104;-33
2022/08/18 13:01:39;;;;;;;7.75;1.40;;;28.10;54.60;;;;;;10398283;28;20164;-34
2022/08/18 13:06:46;;;;;;;2.65;1.38;;;27.70;56.90;;;;;;10390955;28;20045;-33
2022/08/18 13:11:49;;;;;;;3.33;1.10;;;27.90;56.10;;;;;;10395198;28;20516;-34
2022/08/18 13:16:51;;;;;;;7.80;1.88;;;28.30;56.30;;;;;;10391272;28;21577;-34
2022/08/18 13:21:53;;;;;;;8.13;1.10;;;28.00;57.20;;;;;;10394120;28;20556;-34
2022/08/18 13:26:57;;;;;;;2.92;1.10;;;27.20;59.40;;;;;;10392525;28;20079;-33
2022/08/18 13:31:59;;;;;;;2.22;1.08;;;28.20;57.00;;;;;;10392269;28;20047;-30
2022/08/18 13:37:01;;;;;;;4.10;1.08;;;28.90;56.40;;;;;;10397475;28;20103;-32
2022/08/18 13:42:05;;;;;;;6.35;1.20;;;29.00;55.90;;;;;;10393585;28;20555;-33
2022/08/18 13:47:07;;;;;;;1.98;0.90;;;29.20;55.30;;;;;;10396226;28;20151;-33
2022/08/18 13:52:12;;;;;;;4.45;1.10;;;28.80;56.30;;;;;;10399323;28;20410;-35
2022/08/18 13:57:15;;;;;;;3.45;1.13;;;29.30;55.40;;;;;;10399883;28;20123;-35
2022/08/18 14:02:17;;;;;;;4.55;1.10;;;29.00;56.00;;;;;;10400561;28;20045;-34
2022/08/18 14:07:19;;;;;;;2.88;1.20;;;29.60;54.70;;;;;;10393625;28;20065;-35
2022/08/18 14:12:23;;;;;;;4.80;1.30;;;29.50;54.70;;;;;;10404732;28;20081;-34
2022/08/18 14:17:26;;;;;;;4.90;1.15;;;28.90;54.50;;;;;;10401074;28;20520;-34
2022/08/18 14:27:49;;;;;;;4.40;1.42;;;29.50;54.70;;;;;;10404584;28;20121;-33
2022/08/18 14:32:52;;;;;;;3.20;1.13;;;30.00;54.10;;;;;;10397981;28;20084;-33
2022/08/18 14:37:54;;;;;;;2.72;1.20;;;29.70;55.50;;;;;;10406399;28;20049;-34
2022/08/18 14:42:57;;;;;;;2.55;1.17;;;30.40;53.50;;;;;;10406697;28;20049;-34
2022/08/18 14:47:59;;;;;;;5.78;1.90;;;30.50;53.60;;;;;;10405471;28;20056;-33
2022/08/18 14:53:01;;;;;;;3.10;1.10;;;30.40;51.90;;;;;;10408142;28;20099;-35
2022/08/18 14:58:04;;;;;;;5.28;1.33;;;30.00;55.50;;;;;;10404970;28;20403;-34
2022/08/18 15:03:06;;;;;;;4.95;1.00;;;31.10;53.00;;;;;;10404967;28;20050;-35
2022/08/18 15:08:09;;;;;;;3.53;0.88;;;31.30;48.90;;;;;;10405657;28;20046;-34
2022/08/18 15:13:13;;;;;;;3.33;1.05;;;31.00;51.50;;;;;;10403329;28;20103;-34
2022/08/18 15:18:15;;;;;;;2.80;1.05;;;30.30;52.00;;;;;;10402856;28;20450;-34
2022/08/18 15:28:38;;;;;;;2.22;1.00;;;31.00;55.00;;;;;;10406789;28;20535;-36
2022/08/18 15:33:40;;;;;;;4.45;0.90;;;31.30;52.50;;;;;;10400524;28;20113;-31
2022/08/18 15:38:41;;;;;;;3.45;1.45;;;31.60;53.60;;;;;;10401182;28;20830;-33
2022/08/18 15:43:45;;;;;;;6.13;1.10;;;31.90;53.70;;;;;;10403054;28;20103;-35
2022/08/18 15:48:46;;;;;;;8.40;1.48;;;32.30;50.10;;;;;;10404822;28;20045;-34
2022/08/18 15:53:48;;;;;;;4.15;1.20;;;32.00;50.60;;;;;;10393688;28;20157;-34
2022/08/18 15:58:52;;;;;;;3.42;1.20;;;31.40;53.40;;;;;;10400027;28;20053;-33
2022/08/18 16:03:54;;;;;;;2.67;1.10;;;32.90;50.90;;;;;;10389199;28;20483;-33
2022/08/18 16:08:56;;;;;;;4.70;1.15;;;33.20;52.40;;;;;;10404794;28;20051;-35
2022/08/18 16:13:59;;;;;;;3.40;0.85;;;33.00;52.50;;;;;;10405707;28;20084;-34
2022/08/18 16:19:02;;;;;;;3.13;1.20;;;32.70;51.20;;;;;;10401103;28;20049;-33
2022/08/18 16:24:05;;;;;;;3.60;1.30;;;33.60;50.10;;;;;;10400194;28;20037;-34
2022/08/18 16:29:08;;;;;;;3.15;1.30;;;33.60;51.90;;;;;;10401106;28;20049;-35
2022/08/18 16:34:10;;;;;;;4.82;1.25;;;34.10;52.90;;;;;;10413147;28;20160;-34
2022/08/18 16:39:12;;;;;;;1.40;0.70;;;34.30;48.60;;;;;;10395750;28;20045;-34
2022/08/18 16:44:15;;;;;;;5.85;1.42;;;33.40;46.80;;;;;;10398400;28;20083;-34
2022/08/18 16:49:18;;;;;;;4.45;0.98;;;32.90;50.00;;;;;;10401883;28;20127;-35
2022/08/18 16:54:20;;;;;;;2.78;1.20;;;34.30;52.90;;;;;;10405353;28;20048;-33
2022/08/18 17:04:42;;;;;;;;;;;34.10;50.80;;;;;;10404806;28;20124;-31
2022/08/18 17:09:44;;;;;;;4.60;1.10;;;34.60;53.90;;;;;;10393931;28;19940;-38
2022/08/18 17:14:48;;;;;;;2.78;1.20;;;33.20;54.70;;;;;;10389895;28;20087;-40
2022/08/18 17:19:50;;;;;;;3.65;1.23;;;32.90;59.80;;;;;;10408984;28;20042;-41
2022/08/18 17:25:01;;;;;;;1.65;1.00;;;33.00;58.50;;;;;;10398656;28;20053;-38
2022/08/18 17:30:08;;;;;;;2.00;0.80;;;33.00;54.10;;;;;;10399516;28;20057;-40
2022/08/18 17:35:14;;;;;;;1.17;0.90;;;33.50;58.90;;;;;;10400859;28;20140;-41
2022/08/18 17:40:20;;;;;;;1.85;0.73;;;33.20;54.80;;;;;;10386251;28;20053;-43
2022/08/18 17:45:23;;;;;;;1.98;0.80;;;33.20;54.10;;;;;;10399530;28;20053;-42
2022/08/18 17:55:53;;;;;;;0.98;0.70;;;33.40;56.10;;;;;;10401729;28;20053;-42
2022/08/18 18:00:57;;;;;;;1.23;0.85;;;33.00;54.50;;;;;;10401029;28;20049;-38
2022/08/18 18:06:06;;;;;;;0.75;0.40;;;32.80;53.70;;;;;;10391901;28;20049;-42
2022/08/18 18:11:11;;;;;;;1.23;0.70;;;32.60;53.10;;;;;;10391902;28;20111;-42
2022/08/18 18:16:24;;;;;;;1.15;0.60;;;32.60;52.20;;;;;;10378846;28;20502;-42
2022/08/18 18:21:26;;;;;;;1.05;0.77;;;32.50;51.80;;;;;;10383857;28;20081;-41
2022/08/18 18:26:35;;;;;;;1.25;0.70;;;32.50;52.40;;;;;;10388122;28;20045;-43
2022/08/18 18:31:38;;;;;;;0.80;0.63;;;32.50;54.10;;;;;;10399823;28;20045;-42
2022/08/18 18:36:45;;;;;;;1.02;0.60;;;32.50;51.90;;;;;;10399803;28;20046;-40
2022/08/18 18:41:50;;;;;;;1.10;0.70;;;32.50;53.70;;;;;;10384217;28;20523;-40
2022/08/18 18:47:02;;;;;;;1.50;0.60;;;33.00;57.10;;;;;;10383162;28;20053;-40
2022/08/18 18:52:10;;;;;;;0.93;0.55;;;32.80;54.10;;;;;;10393891;28;20136;-40
2022/08/18 18:57:17;;;;;;;0.98;0.65;;;32.60;54.20;;;;;;10400521;28;20065;-35
2022/08/18 19:02:26;;;;;;;1.55;0.80;;;32.50;53.80;;;;;;10397317;28;20128;-40
2022/08/18 19:07:44;;;;;;;1.63;0.80;;;32.10;52.40;;;;;;10403944;28;20076;-43
2022/08/18 19:12:57;;;;;;;1.75;0.77;;;31.90;52.10;;;;;;10408898;28;20057;-40
2022/08/18 19:18:03;;;;;;;1.23;0.80;;;31.80;51.80;;;;;;10406512;28;20470;-38
2022/08/18 19:23:13;;;;;;;1.77;0.90;;;31.70;51.70;;;;;;10391186;28;20120;-38
2022/08/18 19:28:19;;;;;;;4.97;1.02;;;31.60;51.70;;;;;;10403019;28;20049;-39
2022/08/18 19:33:26;;;;;;;4.25;1.30;;;31.50;51.60;;;;;;10394301;28;20100;-37
2022/08/18 19:38:33;;;;;;;4.50;1.27;;;31.40;51.70;;;;;;10402759;28;20071;-42
2022/08/18 19:43:42;;;;;;;9.95;1.30;;;31.30;51.60;;;;;;10399861;28;20143;-39
2022/08/18 19:48:55;;;;;;;3.28;1.50;;;31.30;51.60;;;;;;10389859;28;20100;-40
2022/08/18 19:54:20;;;;;;;3.00;1.30;;;31.20;51.70;;;;;;10399241;28;20136;-38
2022/08/18 19:59:39;;;;;;;8.70;1.40;;;31.20;51.70;;;;;;10400092;28;20137;-41
2022/08/18 20:04:59;;;;;;;3.45;1.45;;;31.10;51.80;;;;;;10400044;28;20494;-40
2022/08/18 20:10:21;;;;;;;5.45;1.42;;;31.00;51.80;;;;;;10403211;28;20041;-38
2022/08/18 20:15:29;;;;;;;6.53;1.30;;;31.00;51.90;;;;;;10404079;28;20712;-40
2022/08/18 20:20:36;;;;;;;4.30;1.40;;;30.90;51.90;;;;;;10403443;28;20072;-43
2022/08/18 20:25:42;;;;;;;3.95;1.30;;;30.90;52.00;;;;;;10407075;28;20046;-39
2022/08/18 20:30:53;;;;;;;5.10;1.50;;;30.80;52.00;;;;;;10404977;28;20111;-38
2022/08/18 20:36:09;;;;;;;5.50;1.63;;;30.80;52.20;;;;;;10405458;28;20163;-41
2022/08/18 20:41:49;;;;;;;2.17;1.50;;;30.70;52.10;;;;;;10391705;28;20049;-40
2022/08/18 20:47:03;;;;;;;4.35;1.83;;;30.60;52.30;;;;;;10411318;28;20045;-38
2022/08/18 20:52:16;;;;;;;7.25;1.92;;;30.50;52.30;;;;;;10404727;28;20063;-40
2022/08/18 20:57:19;;;;;;;7.15;2.00;;;30.50;52.50;;;;;;10403126;28;20049;-37
2022/08/18 21:02:28;;;;;;;5.25;1.90;;;30.50;52.50;;;;;;10400956;28;20053;-41
2022/08/18 21:07:36;;;;;;;5.45;2.00;;;30.40;52.50;;;;;;10404190;28;20077;-41
2022/08/18 21:12:38;;;;;;;3.72;2.03;;;30.40;52.50;;;;;;10396845;28;20088;-41
2022/08/18 21:17:42;;;;;;;4.72;1.80;;;30.40;52.60;;;;;;10403225;28;20080;-41
2022/08/18 21:22:45;;;;;;;4.22;2.08;;;30.40;52.70;;;;;;10398717;28;20045;-40
2022/08/18 21:27:47;;;;;;;2.25;1.40;;;30.30;52.70;;;;;;10397916;28;20099;-38
2022/08/18 21:32:50;;;;;;;3.90;2.00;;;30.20;52.80;;;;;;10398006;28;20568;-42
2022/08/18 21:37:58;;;;;;;4.13;2.28;;;30.20;52.80;;;;;;10394482;28;20045;-41
2022/08/18 21:43:00;;;;;;;6.85;2.55;;;30.10;52.80;;;;;;10395488;28;20364;-41
2022/08/18 21:48:06;;;;;;;4.75;2.00;;;30.10;52.90;;;;;;10383608;28;20115;-43
2022/08/18 21:53:20;;;;;;;6.70;2.22;;;30.10;53.00;;;;;;10396778;28;20056;-41
2022/08/18 21:58:27;;;;;;;3.80;1.88;;;30.10;53.10;;;;;;10393410;28;20072;-36
2022/08/18 22:03:30;;;;;;;5.55;2.20;;;30.00;53.10;;;;;;10401167;28;20081;-38
2022/08/18 22:08:48;;;;;;;4.07;1.67;;;29.90;53.10;;;;;;10391505;28;20061;-37
2022/08/18 22:14:01;;;;;;;2.40;1.92;;;30.00;53.20;;;;;;10402947;28;20514;-37
2022/08/18 22:19:10;;;;;;;3.92;2.00;;;29.90;53.20;;;;;;10404857;28;20115;-38
2022/08/18 22:24:19;;;;;;;3.65;2.00;;;29.80;53.30;;;;;;10411657;28;20049;-42
2022/08/18 22:29:27;;;;;;;4.82;2.38;;;29.80;53.30;;;;;;10404618;28;20085;-40
2022/08/18 22:34:31;;;;;;;5.68;2.15;;;29.70;53.40;;;;;;10390146;28;20061;-37
2022/08/18 22:39:38;;;;;;;4.20;2.20;;;29.70;53.50;;;;;;10410265;28;20050;-38
2022/08/18 22:44:40;;;;;;;2.50;1.65;;;29.70;53.60;;;;;;10405330;28;20054;-42
2022/08/18 22:49:44;;;;;;;2.08;1.83;;;29.60;53.50;;;;;;10406370;28;20543;-41
2022/08/18 22:54:47;;;;;;;3.30;1.92;;;29.50;53.50;;;;;;10402187;28;20483;-37
2022/08/18 22:59:49;;;;;;;4.30;2.28;;;29.50;53.60;;;;;;10407644;28;20044;-39
2022/08/18 23:04:51;;;;;;;2.95;2.00;;;29.50;53.70;;;;;;10410131;28;20136;-39
2022/08/18 23:09:54;;;;;;;4.18;1.58;;;29.40;53.70;;;;;;10414689;28;20574;-41
2022/08/18 23:14:56;;;;;;;9.88;2.00;;;29.40;53.70;;;;;;10403826;28;20041;-40
2022/08/18 23:19:58;;;;;;;3.25;1.70;;;29.40;53.80;;;;;;10404869;28;20076;-42
2022/08/18 23:25:01;;;;;;;3.40;2.08;;;29.30;53.80;;;;;;10401682;28;20095;-37
2022/08/18 23:30:04;;;;;;;3.10;1.95;;;29.30;53.90;;;;;;10400939;28;20049;-41
2022/08/18 23:35:07;;;;;;;4.47;1.92;;;29.30;53.90;;;;;;10406171;28;20088;-41
2022/08/18 23:40:13;;;;;;;3.50;1.90;;;29.20;54.00;;;;;;10411030;28;20084;-43
2022/08/18 23:45:15;;;;;;;5.43;2.70;;;29.20;54.00;;;;;;10395385;28;20096;-43
2022/08/18 23:50:17;;;;;;;6.10;2.58;;;29.10;54.10;;;;;;10415758;28;20136;-42
2022/08/18 23:55:20;;;;;;;6.03;1.77;;;29.10;54.10;;;;;;10403023;28;20081;-41
